createdAt,value
2023-04-15T00:01:13.358Z,97.21
2023-04-15T00:03:41.457Z,97.30
2023-04-15T00:06:09.839Z,97.18
2023-04-15T00:08:37.858Z,97.12
2023-04-15T00:11:06.066Z,96.98
2023-04-15T00:13:34.891Z,97.37
2023-04-15T00:16:02.809Z,97.28
2023-04-15T00:18:31.593Z,97.19
2023-04-15T00:20:59.500Z,97.60
2023-04-15T00:23:28.065Z,97.76
2023-04-15T00:25:56.578Z,98.06
2023-04-15T00:28:24.447Z,98.32
2023-04-15T00:30:52.370Z,98.68
2023-04-15T00:33:20.409Z,98.40
2023-04-15T00:35:48.323Z,98.06
2023-04-15T00:38:16.195Z,97.83
2023-04-15T00:40:44.489Z,97.95
2023-04-15T00:43:12.547Z,97.90
2023-04-15T00:45:41.240Z,97.83
2023-04-15T00:48:09.621Z,97.81
2023-04-15T00:50:37.510Z,97.66
2023-04-15T00:53:05.645Z,97.52
2023-04-15T00:55:33.854Z,97.53
2023-04-15T00:58:02.167Z,97.48
2023-04-15T01:00:30.486Z,97.10
2023-04-15T01:03:00.263Z,97.04
2023-04-15T01:05:28.735Z,97.21
2023-04-15T01:07:58.205Z,97.14
2023-04-15T01:10:26.099Z,97.16
2023-04-15T01:12:53.982Z,97.08
2023-04-15T01:15:21.932Z,97.06
2023-04-15T01:17:50.266Z,96.94
2023-04-15T01:20:18.401Z,96.87
2023-04-15T01:22:46.590Z,97.03
2023-04-15T01:25:19.958Z,96.95
2023-04-15T01:27:48.416Z,96.87
2023-04-15T01:30:17.325Z,96.90
2023-04-15T01:32:45.276Z,96.78
2023-04-15T01:35:13.211Z,96.84
2023-04-15T01:37:41.182Z,96.92
2023-04-15T01:40:09.420Z,96.98
2023-04-15T01:42:37.664Z,96.90
2023-04-15T01:45:07.220Z,96.84
2023-04-15T01:47:35.259Z,96.88
2023-04-15T01:50:03.402Z,96.84
2023-04-15T01:52:32.209Z,96.79
2023-04-15T01:55:00.132Z,96.82
2023-04-15T01:57:28.159Z,96.78
2023-04-15T01:59:56.148Z,96.68
2023-04-15T02:02:24.168Z,96.84
2023-04-15T02:04:52.246Z,96.93
2023-04-15T02:07:20.200Z,96.86
2023-04-15T02:09:48.140Z,96.96
2023-04-15T02:12:16.133Z,96.92
2023-04-15T02:14:43.961Z,96.90
2023-04-15T02:17:11.872Z,96.90
2023-04-15T02:19:40.527Z,96.98
2023-04-15T02:22:09.411Z,96.89
2023-04-15T02:24:37.439Z,96.97
2023-04-15T02:27:05.301Z,97.05
2023-04-15T02:29:33.230Z,96.89
2023-04-15T02:32:01.978Z,96.50
2023-04-15T02:34:30.449Z,96.35
2023-04-15T02:36:59.009Z,96.05
2023-04-15T02:39:27.382Z,95.55
2023-04-15T02:41:55.529Z,95.26
2023-04-15T02:44:25.004Z,94.73
2023-04-15T02:46:54.896Z,94.25
2023-04-15T02:49:23.034Z,93.79
2023-04-15T02:51:51.658Z,93.58
2023-04-15T02:54:22.811Z,93.44
2023-04-15T02:56:50.892Z,93.73
2023-04-15T02:59:18.758Z,93.63
2023-04-15T03:01:46.758Z,93.74
2023-04-15T03:04:14.966Z,93.61
2023-04-15T03:06:43.084Z,93.68
2023-04-15T03:09:11.136Z,93.56
2023-04-15T03:11:40.799Z,93.35
2023-04-15T03:14:09.907Z,93.46
2023-04-15T03:16:40.713Z,93.32
2023-04-15T03:19:09.070Z,93.16
2023-04-15T03:21:37.023Z,92.95
2023-04-15T03:24:05.079Z,92.70
2023-04-15T03:26:33.345Z,92.59
2023-04-15T03:29:03.671Z,92.41
2023-04-15T03:31:31.784Z,92.25
2023-04-15T03:33:59.770Z,92.21
2023-04-15T03:36:31.277Z,92.24
2023-04-15T03:38:59.847Z,92.10
2023-04-15T03:41:28.829Z,92.07
2023-04-15T03:43:57.157Z,92.11
2023-04-15T03:46:25.143Z,91.91
2023-04-15T03:48:53.144Z,91.73
2023-04-15T03:51:21.447Z,91.66
2023-04-15T03:53:49.372Z,91.68
2023-04-15T03:56:17.307Z,91.67
2023-04-15T03:58:45.383Z,91.39
2023-04-15T04:01:13.284Z,91.42
2023-04-15T04:03:41.410Z,91.44
2023-04-15T04:06:09.879Z,91.23
2023-04-15T04:08:37.861Z,90.94
2023-04-15T04:11:05.704Z,91.03
2023-04-15T04:13:33.563Z,91.13
2023-04-15T04:16:01.738Z,91.01
2023-04-15T04:18:29.795Z,90.71
2023-04-15T04:20:57.802Z,90.55
2023-04-15T04:23:25.828Z,90.55
2023-04-15T04:25:53.806Z,90.56
2023-04-15T04:28:21.697Z,90.53
2023-04-15T04:30:49.617Z,90.54
2023-04-15T04:33:17.477Z,90.68
2023-04-15T04:35:45.389Z,90.67
2023-04-15T04:38:13.231Z,90.58
2023-04-15T04:40:41.236Z,90.63
2023-04-15T04:43:09.495Z,90.47
2023-04-15T04:45:37.539Z,90.36
2023-04-15T04:48:07.262Z,89.95
2023-04-15T04:50:35.669Z,90.10
2023-04-15T04:53:03.870Z,89.99
2023-04-15T04:55:32.057Z,89.49
2023-04-15T04:57:59.891Z,89.33
2023-04-15T05:00:27.760Z,89.41
2023-04-15T05:02:56.229Z,89.24
2023-04-15T05:05:24.145Z,88.96
2023-04-15T05:07:52.144Z,89.20
2023-04-15T05:10:20.068Z,89.26
2023-04-15T05:12:47.991Z,89.29
2023-04-15T05:15:15.943Z,89.46
2023-04-15T05:17:44.721Z,89.02
2023-04-15T05:20:13.627Z,89.05
2023-04-15T05:22:41.601Z,89.16
2023-04-15T05:25:09.896Z,89.24
2023-04-15T05:27:37.922Z,89.01
2023-04-15T05:30:07.274Z,88.89
2023-04-15T05:32:35.258Z,88.73
2023-04-15T05:35:03.474Z,88.69
2023-04-15T05:37:31.448Z,88.42
2023-04-15T05:39:59.318Z,88.27
2023-04-15T05:42:27.210Z,87.99
2023-04-15T05:44:55.130Z,87.83
2023-04-15T05:47:23.184Z,87.96
2023-04-15T05:49:51.455Z,87.63
2023-04-15T05:52:19.414Z,87.22
2023-04-15T05:54:47.284Z,86.98
2023-04-15T05:57:15.189Z,86.71
2023-04-15T05:59:43.049Z,86.69
2023-04-15T06:02:10.927Z,86.48
2023-04-15T06:04:39.442Z,86.14
2023-04-15T06:07:07.422Z,85.88
2023-04-15T06:09:36.235Z,85.65
2023-04-15T06:12:04.438Z,85.52
2023-04-15T06:14:32.402Z,85.24
2023-04-15T06:17:00.245Z,85.26
2023-04-15T06:19:28.064Z,85.12
2023-04-15T06:21:56.065Z,85.31
2023-04-15T06:24:24.015Z,85.34
2023-04-15T06:26:51.887Z,85.13
2023-04-15T06:29:19.840Z,84.65
2023-04-15T06:31:48.620Z,84.25
2023-04-15T06:34:17.221Z,83.77
2023-04-15T06:36:45.154Z,83.66
2023-04-15T06:39:13.013Z,83.69
2023-04-15T06:41:41.032Z,83.27
2023-04-15T06:44:09.055Z,82.08
2023-04-15T06:46:36.957Z,81.56
2023-04-15T06:49:05.467Z,82.02
2023-04-15T06:51:35.912Z,82.58
2023-04-15T06:54:05.987Z,82.42
2023-04-15T06:56:34.260Z,82.31
2023-04-15T06:59:02.415Z,80.58
2023-04-15T07:01:30.681Z,79.84
2023-04-15T07:03:58.726Z,80.45
2023-04-15T07:06:27.586Z,80.87
2023-04-15T07:08:55.836Z,80.99
2023-04-15T07:11:23.864Z,80.95
2023-04-15T07:13:51.721Z,80.73
2023-04-15T07:16:19.607Z,80.13
2023-04-15T07:18:47.437Z,79.93
2023-04-15T07:21:15.377Z,79.87
2023-04-15T07:23:43.336Z,79.34
2023-04-15T07:26:11.333Z,79.12
2023-04-15T07:28:39.418Z,79.08
2023-04-15T07:31:07.329Z,79.18
2023-04-15T07:33:35.211Z,78.59
2023-04-15T07:36:03.279Z,78.43
2023-04-15T07:38:31.227Z,78.36
2023-04-15T07:40:59.327Z,78.21
2023-04-15T07:43:27.274Z,77.85
2023-04-15T07:45:55.464Z,77.26
2023-04-15T07:48:23.411Z,77.33
2023-04-15T07:50:51.286Z,77.25
2023-04-15T07:53:19.160Z,77.03
2023-04-15T07:55:47.010Z,76.77
2023-04-15T07:58:14.852Z,76.53
2023-04-15T08:00:42.848Z,76.61
2023-04-15T08:03:18.504Z,76.21
2023-04-15T08:05:47.539Z,75.83
2023-04-15T08:08:15.467Z,75.58
2023-04-15T08:10:43.427Z,75.84
2023-04-15T08:13:11.800Z,76.02
2023-04-15T08:15:39.756Z,75.68
2023-04-15T08:18:07.749Z,75.38
2023-04-15T08:20:35.681Z,75.21
2023-04-15T08:23:04.672Z,75.16
2023-04-15T08:25:32.644Z,74.92
2023-04-15T08:28:05.233Z,74.72
2023-04-15T08:30:33.147Z,74.58
2023-04-15T08:33:01.267Z,74.35
2023-04-15T08:35:29.201Z,74.38
2023-04-15T08:37:57.246Z,74.27
2023-04-15T08:40:35.833Z,73.93
2023-04-15T08:43:05.989Z,73.98
2023-04-15T08:45:34.083Z,73.53
2023-04-15T08:48:04.997Z,73.82
2023-04-15T08:50:33.236Z,74.00
2023-04-15T08:53:01.982Z,73.35
2023-04-15T08:55:36.452Z,72.69
2023-04-15T08:58:05.575Z,72.48
2023-04-15T09:00:34.104Z,72.38
2023-04-15T09:03:02.456Z,71.72
2023-04-15T09:05:35.210Z,71.72
2023-04-15T09:08:04.212Z,71.49
2023-04-15T09:10:33.641Z,71.43
2023-04-15T09:13:02.135Z,71.22
2023-04-15T09:15:30.461Z,71.26
2023-04-15T09:17:58.513Z,71.43
2023-04-15T09:20:26.494Z,71.39
2023-04-15T09:22:54.487Z,71.41
2023-04-15T09:25:30.050Z,70.97
2023-04-15T09:28:00.567Z,70.89
2023-04-15T09:30:29.079Z,70.37
2023-04-15T09:33:08.376Z,70.09
2023-04-15T09:35:37.070Z,70.08
2023-04-15T09:38:09.847Z,69.59
2023-04-15T09:40:40.223Z,69.16
2023-04-15T09:43:09.963Z,69.40
2023-04-15T09:45:38.004Z,69.23
2023-04-15T09:48:16.252Z,69.11
2023-04-15T09:50:44.636Z,68.92
2023-04-15T09:53:17.102Z,68.81
2023-04-15T09:55:53.098Z,67.72
2023-04-15T09:58:23.575Z,67.44
2023-04-15T10:00:53.055Z,67.57
2023-04-15T10:03:32.422Z,67.59
2023-04-15T10:06:02.150Z,67.11
2023-04-15T10:08:33.031Z,66.88
2023-04-15T10:11:05.041Z,66.62
2023-04-15T10:13:35.085Z,66.20
2023-04-15T10:16:11.271Z,66.15
2023-04-15T10:18:43.842Z,65.85
2023-04-15T10:21:14.004Z,65.76
2023-04-15T10:23:42.566Z,65.33
2023-04-15T10:26:12.488Z,65.28
2023-04-15T10:28:44.035Z,64.90
2023-04-15T10:31:14.939Z,64.88
2023-04-15T10:33:44.361Z,65.10
2023-04-15T10:36:13.269Z,64.56
2023-04-15T10:38:45.884Z,64.54
2023-04-15T10:41:27.977Z,64.03
2023-04-15T10:44:04.430Z,63.68
2023-04-15T10:46:41.071Z,63.45
2023-04-15T10:49:11.770Z,63.31
2023-04-15T10:51:45.020Z,63.14
2023-04-15T10:54:31.133Z,62.59
2023-04-15T10:57:01.964Z,62.51
2023-04-15T10:59:34.122Z,62.63
2023-04-15T11:02:07.352Z,62.49
2023-04-15T11:04:55.068Z,62.24
2023-04-15T11:07:39.817Z,61.86
2023-04-15T11:10:13.565Z,61.97
2023-04-15T11:12:42.072Z,61.64
2023-04-15T11:15:39.298Z,61.41
2023-04-15T11:18:17.486Z,61.17
2023-04-15T11:20:51.050Z,61.12
2023-04-15T11:23:20.469Z,60.74
2023-04-15T11:25:48.742Z,60.35
2023-04-15T11:28:16.755Z,60.64
2023-04-15T11:30:44.664Z,60.55
2023-04-15T11:33:13.832Z,59.94
2023-04-15T11:35:42.433Z,59.77
2023-04-15T11:38:13.888Z,59.91
2023-04-15T11:40:46.227Z,59.98
2023-04-15T11:43:22.968Z,59.79
2023-04-15T11:45:56.388Z,59.38
2023-04-15T11:48:26.052Z,59.23
2023-04-15T11:50:59.213Z,59.00
2023-04-15T11:53:40.811Z,58.90
2023-04-15T11:56:10.601Z,58.73
2023-04-15T11:58:39.308Z,58.87
2023-04-15T12:01:07.835Z,58.87
2023-04-15T12:03:41.426Z,58.37
2023-04-15T12:06:21.884Z,58.22
2023-04-15T12:08:55.831Z,58.49
2023-04-15T12:11:26.547Z,58.68
2023-04-15T12:13:59.383Z,58.56
2023-04-15T12:16:28.616Z,58.32
2023-04-15T12:19:01.397Z,58.03
2023-04-15T12:21:35.530Z,57.48
2023-04-15T12:24:06.345Z,57.33
2023-04-15T12:26:35.699Z,57.37
2023-04-15T12:29:08.709Z,57.45
2023-04-15T12:31:37.276Z,57.34
2023-04-15T12:34:09.277Z,57.08
2023-04-15T12:36:37.755Z,56.75
2023-04-15T12:39:08.802Z,56.75
2023-04-15T12:41:36.682Z,56.66
2023-04-15T12:44:05.579Z,56.70
2023-04-15T12:46:33.694Z,56.31
2023-04-15T12:49:01.586Z,56.13
2023-04-15T12:51:29.485Z,56.12
2023-04-15T12:53:58.048Z,56.06
2023-04-15T12:56:26.041Z,55.87
2023-04-15T12:58:53.951Z,55.76
2023-04-15T13:01:21.976Z,55.68
2023-04-15T13:03:51.743Z,55.24
2023-04-15T13:06:19.648Z,55.12
2023-04-15T13:08:57.203Z,55.08
2023-04-15T13:11:26.371Z,54.92
2023-04-15T13:13:54.324Z,55.10
2023-04-15T13:16:22.325Z,55.04
2023-04-15T13:18:50.773Z,54.94
2023-04-15T13:21:19.614Z,54.73
2023-04-15T13:23:50.375Z,54.46
2023-04-15T13:26:18.759Z,54.42
2023-04-15T13:28:46.754Z,54.40
2023-04-15T13:31:14.697Z,54.46
2023-04-15T13:33:45.506Z,54.47
2023-04-15T13:36:13.386Z,54.20
2023-04-15T13:38:41.444Z,53.69
2023-04-15T13:41:09.318Z,53.81
2023-04-15T13:43:37.596Z,53.91
2023-04-15T13:46:05.836Z,53.78
2023-04-15T13:48:33.775Z,53.48
2023-04-15T13:51:01.726Z,53.39
2023-04-15T13:53:37.759Z,53.44
2023-04-15T13:56:08.549Z,53.33
2023-04-15T13:58:37.962Z,52.87
2023-04-15T14:01:07.002Z,52.88
2023-04-15T14:03:36.568Z,52.88
2023-04-15T14:06:08.049Z,52.68
2023-04-15T14:08:36.003Z,52.41
2023-04-15T14:11:03.904Z,52.17
2023-04-15T14:13:31.849Z,51.59
2023-04-15T14:15:59.983Z,51.47
2023-04-15T14:18:28.024Z,51.93
2023-04-15T14:20:56.050Z,51.84
2023-04-15T14:23:23.987Z,52.02
2023-04-15T14:25:52.309Z,52.02
2023-04-15T14:28:20.350Z,51.98
2023-04-15T14:30:48.324Z,51.66
2023-04-15T14:33:16.350Z,51.47
2023-04-15T14:35:44.277Z,51.45
2023-04-15T14:38:12.285Z,51.30
2023-04-15T14:40:41.221Z,51.14
2023-04-15T14:43:09.177Z,51.13
2023-04-15T14:45:38.262Z,51.19
2023-04-15T14:48:09.812Z,50.89
2023-04-15T14:50:38.243Z,50.77
2023-04-15T14:53:06.178Z,50.73
2023-04-15T14:55:34.230Z,50.50
2023-04-15T14:58:02.691Z,50.40
2023-04-15T15:00:30.854Z,50.67
2023-04-15T15:02:58.875Z,50.48
2023-04-15T15:05:27.177Z,50.28
2023-04-15T15:07:55.282Z,50.40
2023-04-15T15:10:33.111Z,50.63
2023-04-15T15:13:09.894Z,50.58
2023-04-15T15:15:39.170Z,50.30
2023-04-15T15:18:07.339Z,50.48
2023-04-15T15:20:36.044Z,50.39
2023-04-15T15:23:03.955Z,50.35
2023-04-15T15:25:31.855Z,50.36
2023-04-15T15:28:00.129Z,50.06
2023-04-15T15:30:28.059Z,50.06
2023-04-15T15:32:56.040Z,50.12
2023-04-15T15:35:24.104Z,50.11
2023-04-15T15:37:52.599Z,49.91
2023-04-15T15:40:20.809Z,50.06
2023-04-15T15:42:50.881Z,49.91
2023-04-15T15:45:19.021Z,50.07
2023-04-15T15:47:47.005Z,49.97
2023-04-15T15:50:14.925Z,49.92
2023-04-15T15:52:42.858Z,49.90
2023-04-15T15:55:10.779Z,49.92
2023-04-15T15:57:38.801Z,49.74
2023-04-15T16:00:12.152Z,49.81
2023-04-15T16:05:13.038Z,49.51
2023-04-15T16:07:40.996Z,49.63
2023-04-15T16:10:09.306Z,49.67
2023-04-15T16:12:37.175Z,49.63
2023-04-15T16:15:05.873Z,49.43
2023-04-15T16:17:34.060Z,49.61
2023-04-15T16:20:05.568Z,49.47
2023-04-15T16:22:35.111Z,49.64
2023-04-15T16:25:03.609Z,49.67
2023-04-15T16:27:31.654Z,49.61
2023-04-15T16:29:59.583Z,49.56
2023-04-15T16:32:27.554Z,49.57
2023-04-15T16:34:55.527Z,49.58
2023-04-15T16:37:23.435Z,49.72
2023-04-15T16:39:51.353Z,50.06
2023-04-15T16:42:19.255Z,50.14
2023-04-15T16:44:47.191Z,50.24
2023-04-15T16:47:15.096Z,50.31
2023-04-15T16:49:43.297Z,50.57
2023-04-15T16:52:11.354Z,50.53
2023-04-15T16:54:41.433Z,50.67
2023-04-15T16:57:09.501Z,50.68
2023-04-15T16:59:37.979Z,50.81
2023-04-15T17:02:06.433Z,50.82
2023-04-15T17:04:35.083Z,50.77
2023-04-15T17:07:03.203Z,50.90
2023-04-15T17:09:31.169Z,50.99
2023-04-15T17:11:59.046Z,51.18
2023-04-15T17:14:29.061Z,51.23
2023-04-15T17:16:57.015Z,51.49
2023-04-15T17:19:26.770Z,51.59
2023-04-15T17:21:55.169Z,51.78
2023-04-15T17:24:23.283Z,51.89
2023-04-15T17:26:51.171Z,52.11
2023-04-15T17:29:19.121Z,52.12
2023-04-15T17:31:47.267Z,52.18
2023-04-15T17:34:16.512Z,52.30
2023-04-15T17:36:45.375Z,52.36
2023-04-15T17:39:15.029Z,52.42
2023-04-15T17:41:43.331Z,52.75
2023-04-15T17:44:11.226Z,52.98
2023-04-15T17:46:39.341Z,53.12
2023-04-15T17:49:07.557Z,53.12
2023-04-15T17:51:35.565Z,53.26
2023-04-15T17:54:12.372Z,53.51
2023-04-15T17:56:40.336Z,53.62
2023-04-15T17:59:08.863Z,53.76
2023-04-15T18:01:37.008Z,53.74
2023-04-15T18:04:05.300Z,53.95
2023-04-15T18:06:33.899Z,53.94
2023-04-15T18:09:02.142Z,54.05
2023-04-15T18:11:33.284Z,54.17
2023-04-15T18:14:03.155Z,54.18
2023-04-15T18:16:31.445Z,54.28
2023-04-15T18:18:59.705Z,54.43
2023-04-15T18:21:28.012Z,54.46
2023-04-15T18:23:56.424Z,54.64
2023-04-15T18:26:24.606Z,54.79
2023-04-15T18:28:52.764Z,54.94
2023-04-15T18:31:21.263Z,55.16
2023-04-15T18:33:49.510Z,55.51
2023-04-15T18:36:17.855Z,55.48
2023-04-15T18:38:46.639Z,55.84
2023-04-15T18:41:14.586Z,56.37
2023-04-15T18:43:42.537Z,56.66
2023-04-15T18:46:12.483Z,56.79
2023-04-15T18:48:40.575Z,57.01
2023-04-15T18:51:08.455Z,57.18
2023-04-15T18:53:36.818Z,57.43
2023-04-15T18:56:05.106Z,57.60
2023-04-15T18:59:21.149Z,57.76
2023-04-15T19:01:21.412Z,58.21
2023-04-15T19:03:50.302Z,58.14
2023-04-15T19:06:18.664Z,58.23
2023-04-15T19:08:47.010Z,58.34
2023-04-15T19:11:15.853Z,58.47
2023-04-15T19:13:43.697Z,58.67
2023-04-15T19:16:11.573Z,58.81
2023-04-15T19:18:39.469Z,58.83
2023-04-15T19:21:07.364Z,58.90
2023-04-15T19:23:35.649Z,58.87
2023-04-15T19:26:03.919Z,59.00
2023-04-15T19:28:32.136Z,59.07
2023-04-15T19:31:00.482Z,59.19
2023-04-15T19:33:31.392Z,59.31
2023-04-15T19:36:04.558Z,59.50
2023-04-15T19:38:37.764Z,59.51
2023-04-15T19:41:05.833Z,59.61
2023-04-15T19:43:34.360Z,59.70
2023-04-15T19:46:02.510Z,59.83
2023-04-15T19:48:30.887Z,60.05
2023-04-15T19:50:59.828Z,60.12
2023-04-15T19:53:27.939Z,60.12
2023-04-15T19:55:56.030Z,60.25
2023-04-15T19:58:23.915Z,60.25
2023-04-15T20:00:52.078Z,60.29
2023-04-15T20:03:20.574Z,60.50
2023-04-15T20:05:48.559Z,60.61
2023-04-15T20:08:16.425Z,60.77
2023-04-15T20:10:44.359Z,60.73
2023-04-15T20:13:12.695Z,60.98
2023-04-15T20:15:40.629Z,61.19
2023-04-15T20:18:08.539Z,61.18
2023-04-15T20:20:39.128Z,61.46
2023-04-15T20:23:06.986Z,61.50
2023-04-15T20:25:34.966Z,61.59
2023-04-15T20:28:02.907Z,61.63
2023-04-15T20:30:30.930Z,61.88
2023-04-15T20:32:59.553Z,61.96
2023-04-15T20:35:30.836Z,61.95
2023-04-15T20:37:59.777Z,61.99
2023-04-15T20:40:28.431Z,62.17
2023-04-15T20:42:56.362Z,62.16
2023-04-15T20:45:24.422Z,62.28
2023-04-15T20:47:54.736Z,62.32
2023-04-15T20:50:22.872Z,62.35
2023-04-15T20:52:50.752Z,62.34
2023-04-15T20:55:18.794Z,62.39
2023-04-15T20:57:48.381Z,62.70
2023-04-15T21:00:16.382Z,62.91
2023-04-15T21:02:44.429Z,63.01
2023-04-15T21:05:12.445Z,63.18
2023-04-15T21:07:41.060Z,63.48
2023-04-15T21:10:09.577Z,63.59
2023-04-15T21:12:41.129Z,63.66
2023-04-15T21:15:09.543Z,63.92
2023-04-15T21:17:37.597Z,63.81
2023-04-15T21:20:06.479Z,63.93
2023-04-15T21:22:34.427Z,64.18
2023-04-15T21:25:02.315Z,64.07
2023-04-15T21:27:30.436Z,64.21
2023-04-15T21:29:58.346Z,64.41
2023-04-15T21:32:26.362Z,64.60
2023-04-15T21:34:54.325Z,64.72
2023-04-15T21:37:22.321Z,64.67
2023-04-15T21:39:50.267Z,64.71
2023-04-15T21:42:18.352Z,64.83
2023-04-15T21:44:46.286Z,64.80
2023-04-15T21:47:14.147Z,64.67
2023-04-15T21:49:42.274Z,64.80
2023-04-15T21:52:10.208Z,64.77
2023-04-15T21:54:38.088Z,64.73
2023-04-15T21:57:05.994Z,64.67
2023-04-15T21:59:34.190Z,64.85
2023-04-15T22:02:02.095Z,64.87
2023-04-15T22:04:30.210Z,65.13
2023-04-15T22:07:01.677Z,65.11
2023-04-15T22:09:29.623Z,65.22
2023-04-15T22:11:59.380Z,65.28
2023-04-15T22:14:28.355Z,65.28
2023-04-15T22:16:57.014Z,65.35
2023-04-15T22:19:25.993Z,65.27
2023-04-15T22:21:53.870Z,65.37
2023-04-15T22:24:34.710Z,65.59
2023-04-15T22:27:09.077Z,65.69
2023-04-15T22:29:36.986Z,65.74
2023-04-15T22:32:05.024Z,65.88
2023-04-15T22:34:32.929Z,66.04
2023-04-15T22:37:00.791Z,65.93
2023-04-15T22:39:28.584Z,66.14
2023-04-15T22:41:56.950Z,66.07
2023-04-15T22:44:24.819Z,66.12
2023-04-15T22:46:52.763Z,66.24
2023-04-15T22:49:20.593Z,66.21
2023-04-15T22:51:48.431Z,66.19
2023-04-15T22:54:16.320Z,66.35
2023-04-15T22:56:44.293Z,66.41
2023-04-15T22:59:12.127Z,66.36
2023-04-15T23:01:40.173Z,66.37
2023-04-15T23:04:09.126Z,66.46
2023-04-15T23:06:51.839Z,66.62
2023-04-15T23:09:19.687Z,66.59
2023-04-15T23:11:47.816Z,66.53
2023-04-15T23:14:15.909Z,66.72
2023-04-15T23:16:43.853Z,66.81
2023-04-15T23:19:11.869Z,66.82
2023-04-15T23:21:39.992Z,66.84
2023-04-15T23:24:07.817Z,66.87
2023-04-15T23:26:35.873Z,67.04
2023-04-15T23:29:03.963Z,67.07
2023-04-15T23:31:32.101Z,67.12
2023-04-15T23:34:00.062Z,67.15
2023-04-15T23:36:28.426Z,67.18
2023-04-15T23:38:56.284Z,67.29
2023-04-15T23:41:24.214Z,67.35
2023-04-15T23:43:52.042Z,67.30
2023-04-15T23:46:20.043Z,67.50
2023-04-15T23:48:49.070Z,67.61
2023-04-15T23:51:17.032Z,67.56
2023-04-15T23:53:44.921Z,67.64
2023-04-15T23:56:12.763Z,67.75
2023-04-15T23:58:40.782Z,67.80
